หน้าหลัก
METAR-TAF:

METAR-TAF

ท่าอากาศยาน :

Kiel, เยอรมนี

ละติจูด: 54-23N, ลองจิจูด: 010-10E, ความสูง: 31 ม.

การสังเกตสภาพอากาศปัจจุบัน

รายงานได้ทำขึ้นเมื่อ 34 นาทีที่แล้ว ณ เวลา 02:20 UTC
ลม 7 นอตจากตะวันตก
อุณหภูมิ 10°C
ความชื้น 93%
ความกดอากาศ 1016 hPa
ทัศนวิสัย 10 กม. หรือมากกว่า

METAR: EDHK 250220Z AUTO 26007KT 9999 R26///// // BKN029/// 10/09 Q1016

เวลา: 04:54 (02:54 UTC)

การพยากรณ์

รายงานได้ทำขึ้นเมื่อ 12 ชั่วโมงและ 54 นาทีที่แล้ว ณ เวลา 14:00 UTC
การพยากรณ์มีผลตั้งแต่วันที่ 24 ณ เวลา 15 UTC จนถึงวันที่ 24 ณ เวลา 19 UTC
ลม 13 นอตจากตะวันตก
ทัศนวิสัย 10 กม. หรือมากกว่า
มีเมฆกระจายเป็นบางส่วนที่ความสูง 3500 ฟุต
ความน่าจะเป็น 30% :
ชั่วคราว
ตั้งแต่วันที่ 24 ณ เวลา 15 UTC จนถึงวันที่ 24 ณ เวลา 17 UTC
ลม 15 นอตจากตะวันตก/ตะวันตกเฉียงเหนือโดยมีลมกระโชกได้ถึง25 นอต
กำลังกลายเป็น
ตั้งแต่วันที่ 24 ณ เวลา 17 UTC จนถึงวันที่ 24 ณ เวลา 19 UTC
ลม 8 นอตจากตะวันตก

TAF: EDHK 241400Z 2415/2419 28013KT 9999 SCT035 PROB30 TEMPO 2415/2417 29015G25KT BECMG 2417/2419 28008KT

สังเกตการณ์สภาพอากาศและพยากรณ์อากาศของสนามบินมากกว่า 4000 แห่ง (รายงาน METAR และ TAF).

สถานีที่ดูได้จะแสดงไว้ด้วยจุดสีเหลืองและสีแดงบนแผนที่.

เลื่อนเมาส์ไปเหนือจุดเพื่อดูชื่อสถานี.

แล้วคลิกเพื่อดูสังเกตการณ์และการพยากรณ์สภาพอากาศ.

ในการเปลี่ยนแผนที่: คลิกที่ปุ่มสีเขียวที่มีกากบาทสีดำเพื่อซูมเข้า; ที่ปุ่มสีเขียวที่มีขีดเพื่อซูมออก; หรือที่ลูกศรสีเขียวเพื่อไปยังแผนที่ที่อยู่ติดกัน.


METAR-TAF: